createdAt,value
2022-08-26T00:01:54.557Z,21.23
2022-08-26T00:04:25.326Z,21.18
2022-08-26T00:06:54.926Z,21.14
2022-08-26T00:09:24.670Z,21.11
2022-08-26T00:11:54.039Z,21.08
2022-08-26T00:14:27.023Z,21.05
2022-08-26T00:16:56.926Z,21.01
2022-08-26T00:19:24.976Z,20.98
2022-08-26T00:21:52.120Z,20.95
2022-08-26T00:24:21.826Z,20.95
2022-08-26T00:26:49.544Z,20.93
2022-08-26T00:29:17.407Z,20.92
2022-08-26T00:31:45.519Z,20.92
2022-08-26T00:34:16.621Z,20.89
2022-08-26T00:36:49.199Z,20.88
2022-08-26T00:39:20.134Z,20.86
2022-08-26T00:41:47.465Z,20.85
2022-08-26T00:44:14.553Z,20.82
2022-08-26T00:46:47.269Z,20.79
2022-08-26T00:49:31.610Z,20.75
2022-08-26T00:52:01.613Z,20.75
2022-08-26T00:54:32.680Z,20.74
2022-08-26T00:57:08.546Z,20.73
2022-08-26T00:59:47.671Z,20.71
2022-08-26T01:02:19.898Z,20.71
2022-08-26T01:04:55.956Z,20.69
2022-08-26T01:07:31.265Z,20.67
2022-08-26T01:10:06.821Z,20.64
2022-08-26T01:12:40.595Z,20.62
2022-08-26T01:15:13.740Z,20.59
2022-08-26T01:17:41.435Z,20.61
2022-08-26T01:20:59.752Z,20.57
2022-08-26T01:23:33.962Z,20.58
2022-08-26T01:26:08.440Z,20.56
2022-08-26T01:28:51.436Z,20.56
2022-08-26T01:31:24.822Z,20.55
2022-08-26T01:34:12.439Z,20.56
2022-08-26T01:36:40.512Z,20.57
2022-08-26T01:39:09.683Z,20.58
2022-08-26T01:41:39.401Z,20.58
2022-08-26T01:44:11.985Z,20.58
2022-08-26T01:46:39.170Z,20.57
2022-08-26T01:49:08.365Z,20.56
2022-08-26T01:51:38.141Z,20.56
2022-08-26T01:54:08.322Z,20.55
2022-08-26T01:56:39.660Z,20.55
2022-08-26T01:59:12.210Z,20.53
2022-08-26T02:01:39.548Z,20.54
2022-08-26T02:04:51.634Z,20.47
2022-08-26T02:07:21.558Z,20.47
2022-08-26T02:09:49.648Z,20.50
2022-08-26T02:12:19.869Z,20.49
2022-08-26T02:14:54.351Z,20.44
2022-08-26T02:17:30.647Z,20.47
2022-08-26T02:19:58.474Z,20.46
2022-08-26T02:22:25.549Z,20.45
2022-08-26T02:24:59.277Z,20.45
2022-08-26T02:27:32.621Z,20.43
2022-08-26T02:30:24.572Z,20.42
2022-08-26T02:32:53.921Z,20.40
2022-08-26T02:35:23.892Z,20.39
2022-08-26T02:37:52.500Z,20.40
2022-08-26T02:40:25.336Z,20.37
2022-08-26T02:42:53.240Z,20.34
2022-08-26T02:45:26.277Z,20.32
2022-08-26T02:47:53.863Z,20.32
2022-08-26T02:50:22.235Z,20.31
2022-08-26T02:52:49.292Z,20.31
2022-08-26T02:55:18.356Z,20.32
2022-08-26T02:57:46.824Z,20.30
2022-08-26T03:00:15.402Z,20.26
2022-08-26T03:02:42.654Z,20.27
2022-08-26T03:05:11.415Z,20.24
2022-08-26T03:07:38.777Z,20.24
2022-08-26T03:10:08.768Z,20.20
2022-08-26T03:12:37.027Z,20.17
2022-08-26T03:15:18.020Z,20.14
2022-08-26T03:17:48.178Z,20.09
2022-08-26T03:20:17.449Z,20.03
2022-08-26T03:22:45.916Z,20.05
2022-08-26T03:25:16.583Z,20.04
2022-08-26T03:27:44.588Z,20.01
2022-08-26T03:30:33.933Z,20.01
2022-08-26T03:33:02.010Z,20.00
2022-08-26T03:35:32.297Z,20.02
2022-08-26T03:38:00.907Z,20.03
2022-08-26T03:40:29.648Z,20.05
2022-08-26T03:42:56.694Z,20.06
2022-08-26T03:45:24.325Z,20.08
2022-08-26T03:47:52.020Z,20.07
2022-08-26T03:50:23.147Z,20.04
2022-08-26T03:52:53.753Z,20.07
2022-08-26T03:55:26.517Z,20.07
2022-08-26T03:57:54.445Z,20.08
2022-08-26T04:00:22.755Z,20.07
2022-08-26T04:02:53.311Z,20.06
2022-08-26T04:05:22.707Z,20.06
2022-08-26T04:07:50.537Z,20.02
2022-08-26T04:10:29.147Z,20.03
2022-08-26T04:13:00.303Z,20.00
2022-08-26T04:15:27.522Z,19.92
2022-08-26T04:17:57.781Z,19.93
2022-08-26T04:20:26.921Z,19.92
2022-08-26T04:22:54.624Z,19.92
2022-08-26T04:25:22.599Z,19.89
2022-08-26T04:27:51.434Z,19.91
2022-08-26T04:30:20.392Z,19.91
2022-08-26T04:32:49.277Z,19.92
2022-08-26T04:35:16.530Z,19.94
2022-08-26T04:37:44.171Z,19.92
2022-08-26T04:40:12.345Z,19.98
2022-08-26T04:42:39.543Z,20.01
2022-08-26T04:45:10.287Z,20.04
2022-08-26T04:47:37.704Z,19.99
2022-08-26T04:50:07.412Z,20.08
2022-08-26T04:52:36.890Z,20.10
2022-08-26T04:55:06.557Z,20.12
2022-08-26T04:57:35.799Z,20.13
2022-08-26T05:00:06.329Z,20.18
2022-08-26T05:02:33.449Z,20.16
2022-08-26T05:05:00.747Z,20.23
2022-08-26T05:07:27.739Z,20.27
2022-08-26T05:09:54.908Z,20.30
2022-08-26T05:12:22.193Z,20.36
2022-08-26T05:14:49.348Z,20.40
2022-08-26T05:17:16.459Z,20.51
2022-08-26T05:19:43.777Z,20.59
2022-08-26T05:22:10.940Z,20.66
2022-08-26T05:24:41.401Z,20.71
2022-08-26T05:27:11.765Z,20.84
2022-08-26T05:29:40.719Z,20.92
2022-08-26T05:32:08.365Z,21.01
2022-08-26T05:34:38.332Z,21.05
2022-08-26T05:37:06.964Z,21.16
2022-08-26T05:39:34.435Z,21.20
2022-08-26T05:42:01.469Z,21.28
2022-08-26T05:44:29.438Z,21.36
2022-08-26T05:47:16.714Z,21.46
2022-08-26T05:49:51.494Z,21.52
2022-08-26T05:52:19.997Z,21.61
2022-08-26T05:54:47.655Z,21.68
2022-08-26T05:57:15.616Z,21.79
2022-08-26T05:59:42.753Z,21.84
2022-08-26T06:02:10.237Z,21.93
2022-08-26T06:04:37.427Z,22.03
2022-08-26T06:07:04.489Z,22.13
2022-08-26T06:09:33.093Z,22.21
2022-08-26T06:12:01.888Z,22.29
2022-08-26T06:14:30.459Z,22.39
2022-08-26T06:16:58.296Z,22.46
2022-08-26T06:19:25.689Z,22.51
2022-08-26T06:22:23.275Z,22.63
2022-08-26T06:25:09.929Z,22.74
2022-08-26T06:27:37.102Z,22.82
2022-08-26T06:30:04.847Z,22.90
2022-08-26T06:32:32.248Z,22.98
2022-08-26T06:34:59.310Z,23.03
2022-08-26T06:37:26.554Z,23.16
2022-08-26T06:39:53.539Z,23.24
2022-08-26T06:42:21.157Z,23.30
2022-08-26T06:44:49.199Z,23.41
2022-08-26T06:47:16.298Z,23.48
2022-08-26T06:49:44.281Z,23.55
2022-08-26T06:52:11.542Z,23.62
2022-08-26T06:54:43.061Z,23.70
2022-08-26T06:57:12.757Z,23.79
2022-08-26T06:59:41.765Z,23.85
2022-08-26T07:02:08.751Z,23.94
2022-08-26T07:04:41.126Z,24.03
2022-08-26T07:07:09.586Z,24.12
2022-08-26T07:09:37.402Z,24.19
2022-08-26T07:12:06.864Z,24.37
2022-08-26T07:14:35.075Z,24.51
2022-08-26T07:17:02.741Z,24.65
2022-08-26T07:19:31.648Z,24.75
2022-08-26T07:22:05.655Z,24.87
2022-08-26T07:24:36.506Z,24.94
2022-08-26T07:27:08.733Z,25.00
2022-08-26T07:29:39.169Z,25.01
2022-08-26T07:32:07.607Z,25.06
2022-08-26T07:34:34.618Z,25.06
2022-08-26T07:37:02.415Z,25.09
2022-08-26T07:39:31.559Z,25.13
2022-08-26T07:42:07.759Z,25.19
2022-08-26T07:44:38.340Z,25.25
2022-08-26T07:47:10.536Z,25.37
2022-08-26T07:49:58.810Z,25.48
2022-08-26T07:52:29.490Z,25.60
2022-08-26T07:55:00.287Z,25.73
2022-08-26T07:57:28.642Z,25.83
2022-08-26T07:59:56.790Z,25.92
2022-08-26T08:02:25.477Z,26.00
2022-08-26T08:04:53.203Z,26.10
2022-08-26T08:07:20.929Z,26.18
2022-08-26T08:09:52.952Z,26.22
2022-08-26T08:12:20.623Z,26.32
2022-08-26T08:14:48.732Z,26.40
2022-08-26T08:17:16.529Z,26.49
2022-08-26T08:19:43.708Z,26.61
2022-08-26T08:22:17.803Z,26.72
2022-08-26T08:24:49.975Z,26.83
2022-08-26T08:27:23.873Z,26.96
2022-08-26T08:29:55.022Z,27.08
2022-08-26T08:32:25.223Z,27.19
2022-08-26T08:34:53.252Z,27.30
2022-08-26T08:37:20.392Z,27.39
2022-08-26T08:39:49.025Z,27.46
2022-08-26T08:42:57.518Z,27.51
2022-08-26T08:45:41.971Z,27.62
2022-08-26T08:48:40.159Z,27.72
2022-08-26T08:51:35.386Z,27.84
2022-08-26T08:54:02.863Z,27.93
2022-08-26T08:56:44.685Z,28.04
2022-08-26T08:59:18.444Z,28.15
2022-08-26T09:02:09.444Z,28.29
2022-08-26T09:05:07.310Z,28.43
2022-08-26T09:07:44.794Z,28.57
2022-08-26T09:10:48.588Z,28.70
2022-08-26T09:13:25.130Z,28.82
2022-08-26T09:16:18.961Z,28.94
2022-08-26T09:19:38.122Z,29.04
2022-08-26T09:22:09.378Z,29.14
2022-08-26T09:24:41.919Z,29.27
2022-08-26T09:27:43.293Z,29.41
2022-08-26T09:30:28.024Z,29.52
2022-08-26T09:33:11.176Z,29.62
2022-08-26T09:35:47.417Z,29.71
2022-08-26T09:38:27.962Z,29.77
2022-08-26T09:41:06.016Z,29.76
2022-08-26T09:43:34.530Z,29.77
2022-08-26T09:46:27.967Z,29.71
2022-08-26T09:48:55.283Z,29.65
2022-08-26T09:51:32.359Z,29.63
2022-08-26T09:54:02.761Z,29.58
2022-08-26T09:56:34.500Z,29.55
2022-08-26T09:59:03.880Z,29.56
2022-08-26T10:01:42.038Z,29.54
2022-08-26T10:04:23.198Z,29.49
2022-08-26T10:07:07.330Z,29.46
2022-08-26T10:09:40.133Z,29.45
2022-08-26T10:12:17.320Z,29.46
2022-08-26T10:14:50.522Z,29.49
2022-08-26T10:17:32.257Z,29.55
2022-08-26T10:20:22.731Z,29.64
2022-08-26T10:23:04.475Z,29.70
2022-08-26T10:25:46.433Z,29.71
2022-08-26T10:29:08.164Z,29.67
2022-08-26T10:32:03.436Z,29.75
2022-08-26T10:34:33.587Z,29.81
2022-08-26T10:37:19.084Z,29.84
2022-08-26T10:40:00.561Z,29.85
2022-08-26T10:42:59.798Z,29.86
2022-08-26T10:45:30.213Z,29.85
2022-08-26T10:48:00.188Z,29.89
2022-08-26T10:50:42.295Z,29.88
2022-08-26T10:53:25.400Z,29.92
2022-08-26T10:56:15.871Z,29.95
2022-08-26T10:58:58.356Z,29.99
2022-08-26T11:01:50.879Z,30.11
2022-08-26T11:04:43.260Z,30.26
2022-08-26T11:07:37.868Z,30.40
2022-08-26T11:10:43.201Z,30.49
2022-08-26T11:13:11.909Z,30.53
2022-08-26T11:15:39.104Z,30.56
2022-08-26T11:18:13.463Z,30.60
2022-08-26T11:20:46.273Z,30.65
2022-08-26T11:23:23.147Z,30.73
2022-08-26T11:25:57.167Z,30.84
2022-08-26T11:28:49.664Z,30.98
2022-08-26T11:31:25.834Z,31.11
2022-08-26T11:33:57.897Z,31.20
2022-08-26T11:36:42.975Z,31.33
2022-08-26T11:39:24.914Z,31.47
2022-08-26T11:41:55.784Z,31.57
2022-08-26T11:44:49.248Z,31.73
2022-08-26T11:47:31.856Z,31.90
2022-08-26T11:50:33.477Z,32.02
2022-08-26T11:53:07.587Z,32.18
2022-08-26T11:55:37.227Z,32.26
2022-08-26T11:58:05.751Z,32.30
2022-08-26T12:01:09.784Z,32.32
2022-08-26T12:03:47.899Z,32.33
2022-08-26T12:06:43.364Z,32.40
2022-08-26T12:09:27.813Z,32.50
2022-08-26T12:12:18.375Z,32.70
2022-08-26T12:14:46.946Z,32.93
2022-08-26T12:17:27.670Z,33.27
2022-08-26T12:19:54.912Z,33.62
2022-08-26T12:22:26.253Z,34.00
2022-08-26T12:25:09.973Z,34.44
2022-08-26T12:27:48.669Z,34.87
2022-08-26T12:30:26.048Z,35.29
2022-08-26T12:33:22.775Z,35.71
2022-08-26T12:35:56.572Z,36.04
2022-08-26T12:38:26.182Z,36.44
2022-08-26T12:40:54.657Z,36.75
2022-08-26T12:43:54.249Z,37.06
2022-08-26T12:46:28.130Z,37.41
2022-08-26T12:49:00.941Z,37.77
2022-08-26T12:51:32.737Z,38.19
2022-08-26T12:54:00.013Z,38.52
2022-08-26T12:56:39.081Z,38.80
2022-08-26T12:59:24.994Z,39.10
2022-08-26T13:01:53.922Z,39.37
2022-08-26T13:04:35.852Z,39.63
2022-08-26T13:07:24.964Z,39.83
2022-08-26T13:09:55.287Z,40.05
2022-08-26T13:12:35.373Z,40.32
2022-08-26T13:15:04.309Z,40.62
2022-08-26T13:17:32.085Z,40.95
2022-08-26T13:20:03.455Z,41.27
2022-08-26T13:22:32.816Z,41.71
2022-08-26T13:24:59.934Z,41.96
2022-08-26T13:27:27.660Z,42.17
2022-08-26T13:29:57.620Z,42.40
2022-08-26T13:32:27.299Z,42.64
2022-08-26T13:34:56.790Z,42.94
2022-08-26T13:37:31.497Z,43.26
2022-08-26T13:40:04.715Z,43.64
2022-08-26T13:42:31.873Z,44.02
2022-08-26T13:44:59.720Z,44.33
2022-08-26T13:47:27.229Z,44.57
2022-08-26T13:49:56.244Z,44.82
2022-08-26T13:52:25.535Z,45.08
2022-08-26T13:54:58.125Z,45.41
2022-08-26T13:57:27.924Z,45.65
2022-08-26T13:59:57.095Z,45.86
2022-08-26T14:02:24.185Z,45.96
2022-08-26T14:04:51.875Z,45.79
2022-08-26T14:07:18.998Z,45.57
2022-08-26T14:09:46.033Z,45.37
2022-08-26T14:12:12.967Z,45.26
2022-08-26T14:14:40.188Z,45.17
2022-08-26T14:17:07.333Z,45.15
2022-08-26T14:19:34.549Z,45.20
2022-08-26T14:22:01.861Z,45.30
2022-08-26T14:24:29.452Z,45.53
2022-08-26T14:26:56.506Z,45.75
2022-08-26T14:29:23.624Z,45.92
2022-08-26T14:31:50.803Z,46.08
2022-08-26T14:34:18.023Z,46.25
2022-08-26T14:36:45.310Z,46.38
2022-08-26T14:39:14.251Z,46.46
2022-08-26T14:41:53.789Z,46.50
2022-08-26T14:44:26.056Z,46.55
2022-08-26T14:46:54.593Z,46.57
2022-08-26T14:49:24.342Z,46.64
2022-08-26T14:51:51.615Z,46.63
2022-08-26T14:54:19.818Z,46.66
2022-08-26T14:56:56.372Z,46.72
2022-08-26T14:59:31.120Z,46.84
2022-08-26T15:02:00.977Z,46.89
2022-08-26T15:04:28.714Z,46.91
2022-08-26T15:06:59.620Z,46.93
2022-08-26T15:09:29.659Z,46.95
2022-08-26T15:11:57.039Z,46.98
2022-08-26T15:14:26.021Z,47.00
2022-08-26T15:16:57.104Z,46.96
2022-08-26T15:19:27.920Z,46.77
2022-08-26T15:21:54.967Z,46.30
2022-08-26T15:24:24.856Z,45.56
2022-08-26T15:26:53.231Z,44.68
2022-08-26T15:29:21.192Z,43.82
2022-08-26T15:31:48.745Z,42.99
2022-08-26T15:34:17.172Z,42.17
2022-08-26T15:36:47.045Z,41.44
2022-08-26T15:39:16.435Z,40.89
2022-08-26T15:41:43.915Z,40.43
2022-08-26T15:44:13.010Z,39.93
2022-08-26T15:46:40.773Z,39.42
2022-08-26T15:49:08.002Z,38.94
2022-08-26T15:51:45.377Z,38.52
2022-08-26T15:54:14.555Z,38.10
2022-08-26T15:56:43.486Z,37.68
2022-08-26T15:59:11.763Z,37.22
2022-08-26T16:01:39.879Z,36.75
2022-08-26T16:04:07.603Z,36.29
2022-08-26T16:06:37.732Z,35.84
2022-08-26T16:09:06.677Z,35.42
2022-08-26T16:11:36.153Z,35.04
2022-08-26T16:14:04.674Z,34.63
2022-08-26T16:16:32.275Z,34.23
2022-08-26T16:19:00.544Z,33.97
2022-08-26T16:21:30.573Z,33.60
2022-08-26T16:23:58.368Z,33.32
2022-08-26T16:26:32.747Z,33.02
2022-08-26T16:29:08.084Z,32.73
2022-08-26T16:31:37.912Z,32.50
2022-08-26T16:34:07.123Z,32.24
2022-08-26T16:36:36.197Z,32.01
2022-08-26T16:39:04.835Z,31.81
2022-08-26T16:41:32.754Z,31.57
2022-08-26T16:44:00.454Z,31.37
2022-08-26T16:46:29.017Z,31.18
2022-08-26T16:48:58.474Z,30.99
2022-08-26T16:51:28.213Z,30.78
2022-08-26T16:53:57.791Z,30.57
2022-08-26T16:56:34.124Z,30.43
2022-08-26T16:59:05.857Z,30.24
2022-08-26T17:01:33.095Z,30.09
2022-08-26T17:04:00.462Z,29.89
2022-08-26T17:06:27.707Z,29.74
2022-08-26T17:08:54.857Z,29.54
2022-08-26T17:11:22.267Z,29.38
2022-08-26T17:13:49.264Z,29.22
2022-08-26T17:16:16.620Z,29.10
2022-08-26T17:18:43.725Z,28.95
2022-08-26T17:21:13.273Z,28.79
2022-08-26T17:23:43.051Z,28.60
2022-08-26T17:26:12.363Z,28.43
2022-08-26T17:28:39.904Z,28.31
2022-08-26T17:31:09.320Z,28.21
2022-08-26T17:33:37.353Z,28.10
2022-08-26T17:36:07.800Z,28.04
2022-08-26T17:38:37.071Z,27.92
2022-08-26T17:41:10.025Z,27.75
2022-08-26T17:43:38.884Z,27.66
2022-08-26T17:46:08.862Z,27.50
2022-08-26T17:48:37.737Z,27.38
2022-08-26T17:51:15.140Z,27.25
2022-08-26T17:53:43.017Z,27.12
2022-08-26T17:56:14.065Z,26.99
2022-08-26T17:58:50.963Z,26.82
2022-08-26T18:01:25.935Z,26.74
2022-08-26T18:03:59.520Z,26.63
2022-08-26T18:06:28.968Z,26.52
2022-08-26T18:08:56.504Z,26.43
2022-08-26T18:11:24.493Z,26.36
2022-08-26T18:13:52.374Z,26.24
2022-08-26T18:16:20.709Z,26.17
2022-08-26T18:18:53.205Z,26.12
2022-08-26T18:21:24.040Z,26.05
2022-08-26T18:23:52.477Z,25.96
2022-08-26T18:26:32.906Z,25.88
2022-08-26T18:29:00.737Z,25.88
2022-08-26T18:31:28.561Z,25.84
2022-08-26T18:33:56.593Z,25.79
2022-08-26T18:36:31.056Z,25.73
2022-08-26T18:38:58.739Z,25.64
2022-08-26T18:41:29.016Z,25.56
2022-08-26T18:43:56.853Z,25.51
2022-08-26T18:46:26.928Z,25.44
2022-08-26T18:48:56.048Z,25.36
2022-08-26T18:51:30.676Z,25.26
2022-08-26T18:54:00.333Z,25.20
2022-08-26T18:56:29.436Z,25.14
2022-08-26T18:58:58.536Z,25.06
2022-08-26T19:01:27.930Z,25.00
2022-08-26T19:04:00.254Z,24.94
2022-08-26T19:06:31.549Z,24.90
2022-08-26T19:09:00.526Z,24.84
2022-08-26T19:11:31.702Z,24.80
2022-08-26T19:14:08.273Z,24.75
2022-08-26T19:16:36.507Z,24.71
2022-08-26T19:19:04.778Z,24.66
2022-08-26T19:21:34.426Z,24.61
2022-08-26T19:24:04.740Z,24.54
2022-08-26T19:26:32.952Z,24.48
2022-08-26T19:29:00.649Z,24.43
2022-08-26T19:31:28.262Z,24.39
2022-08-26T19:33:56.642Z,24.27
2022-08-26T19:36:25.589Z,24.26
2022-08-26T19:38:53.832Z,24.19
2022-08-26T19:41:37.303Z,24.16
2022-08-26T19:44:36.352Z,24.11
2022-08-26T19:47:07.946Z,24.04
2022-08-26T19:49:35.814Z,24.01
2022-08-26T19:52:03.906Z,24.00
2022-08-26T19:54:31.363Z,23.98
2022-08-26T19:56:59.331Z,23.97
2022-08-26T19:59:27.426Z,23.93
2022-08-26T20:02:01.187Z,23.94
2022-08-26T20:04:32.988Z,23.89
2022-08-26T20:07:01.844Z,23.87
2022-08-26T20:09:30.804Z,23.86
2022-08-26T20:11:58.083Z,23.86
2022-08-26T20:14:27.384Z,23.89
2022-08-26T20:16:54.879Z,23.93
2022-08-26T20:19:41.068Z,23.97
2022-08-26T20:22:08.816Z,23.97
2022-08-26T20:24:36.297Z,23.96
2022-08-26T20:27:07.666Z,23.96
2022-08-26T20:29:36.065Z,23.94
2022-08-26T20:32:06.249Z,23.91
2022-08-26T20:34:34.874Z,23.91
2022-08-26T20:37:03.960Z,23.81
2022-08-26T20:39:31.541Z,23.52
2022-08-26T20:41:59.172Z,23.21
2022-08-26T20:44:26.472Z,22.89
2022-08-26T20:46:53.624Z,22.63
2022-08-26T20:49:21.179Z,22.44
2022-08-26T20:51:51.453Z,22.25
2022-08-26T20:54:25.042Z,22.12
2022-08-26T20:56:56.361Z,22.00
2022-08-26T20:59:24.522Z,21.89
2022-08-26T21:01:52.018Z,21.84
2022-08-26T21:04:25.061Z,21.80
2022-08-26T21:06:54.620Z,21.71
2022-08-26T21:09:27.258Z,21.63
2022-08-26T21:11:55.795Z,21.58
2022-08-26T21:14:25.679Z,21.49
2022-08-26T21:16:53.975Z,21.44
2022-08-26T21:19:21.693Z,21.36
2022-08-26T21:21:48.984Z,21.31
2022-08-26T21:24:16.778Z,21.23
2022-08-26T21:26:44.516Z,21.15
2022-08-26T21:29:13.542Z,21.08
2022-08-26T21:31:46.090Z,21.04
2022-08-26T21:34:17.565Z,21.03
2022-08-26T21:36:46.994Z,21.02
2022-08-26T21:39:15.290Z,21.02
2022-08-26T21:41:44.142Z,21.05
2022-08-26T21:44:12.535Z,21.07
2022-08-26T21:46:40.704Z,21.11
2022-08-26T21:49:11.155Z,21.14
2022-08-26T21:51:46.751Z,21.16
2022-08-26T21:54:14.935Z,21.18
2022-08-26T21:56:46.677Z,21.20
2022-08-26T21:59:16.877Z,21.26
2022-08-26T22:01:44.066Z,21.28
2022-08-26T22:04:11.405Z,21.32
2022-08-26T22:06:49.748Z,21.36
2022-08-26T22:09:24.598Z,21.40
2022-08-26T22:11:52.880Z,21.42
2022-08-26T22:14:30.430Z,21.44
2022-08-26T22:16:59.139Z,21.40
2022-08-26T22:19:26.172Z,21.42
2022-08-26T22:21:55.167Z,21.42
2022-08-26T22:24:24.898Z,21.39
2022-08-26T22:26:53.027Z,21.36
2022-08-26T22:29:20.507Z,21.32
2022-08-26T22:31:47.659Z,21.30
2022-08-26T22:34:17.491Z,21.31
2022-08-26T22:36:48.258Z,21.32
2022-08-26T22:39:22.916Z,21.31
2022-08-26T22:41:51.642Z,21.28
2022-08-26T22:44:20.490Z,21.28
2022-08-26T22:46:50.568Z,21.28
2022-08-26T22:49:18.160Z,21.27
2022-08-26T22:51:46.481Z,21.27
2022-08-26T22:54:14.809Z,21.25
2022-08-26T22:56:43.897Z,21.24
2022-08-26T22:59:12.066Z,21.23
2022-08-26T23:01:43.246Z,21.24
2022-08-26T23:04:11.755Z,21.20
2022-08-26T23:06:43.343Z,21.23
2022-08-26T23:09:18.131Z,21.23
2022-08-26T23:11:47.691Z,21.24
2022-08-26T23:14:16.865Z,21.22
2022-08-26T23:16:44.130Z,21.22
2022-08-26T23:19:13.663Z,21.21
2022-08-26T23:21:41.749Z,21.20
2022-08-26T23:24:10.111Z,21.18
2022-08-26T23:26:39.069Z,21.15
2022-08-26T23:29:08.516Z,21.14
2022-08-26T23:31:38.813Z,21.11
2022-08-26T23:34:25.263Z,21.12
2022-08-26T23:36:53.850Z,21.07
2022-08-26T23:39:21.173Z,21.07
2022-08-26T23:41:48.245Z,21.05
2022-08-26T23:44:15.261Z,21.03
2022-08-26T23:46:42.316Z,21.02
2022-08-26T23:49:09.955Z,20.95
2022-08-26T23:51:57.350Z,20.92
2022-08-26T23:54:24.508Z,20.91
2022-08-26T23:56:51.473Z,20.92
2022-08-26T23:59:19.133Z,20.89
